createdAt,value
2019-04-05T00:02:35.011Z,76.30
2019-04-05T00:08:34.949Z,77.60
2019-04-05T00:17:52.313Z,78.10
2019-04-05T00:29:37.237Z,77.80
2019-04-05T00:35:49.359Z,78.60
2019-04-05T00:42:01.380Z,78.90
2019-04-05T00:48:13.298Z,78.80
2019-04-05T00:54:25.835Z,78.30
2019-04-05T01:00:38.363Z,77.90
2019-04-05T01:06:13.623Z,78.40
2019-04-05T01:12:13.969Z,78.80
2019-04-05T01:18:14.213Z,78.80
2019-04-05T01:27:43.461Z,78.50
2019-04-05T01:33:42.887Z,77.90
2019-04-05T01:39:43.230Z,77.50
2019-04-05T01:45:52.941Z,78.00
2019-04-05T01:51:44.640Z,77.50
2019-04-05T01:57:44.272Z,77.50
2019-04-05T02:03:43.389Z,77.30
2019-04-05T02:09:55.819Z,77.40
2019-04-05T02:16:07.737Z,78.00
2019-04-05T02:22:19.505Z,77.70
2019-04-05T02:31:43.491Z,79.50
2019-04-05T02:37:43.112Z,80.40
2019-04-05T02:43:45.291Z,80.80
2019-04-05T02:49:59.461Z,81.30
2019-04-05T02:56:12.816Z,81.50
2019-04-05T03:02:13.876Z,80.50
2019-04-05T03:07:49.448Z,79.20
2019-04-05T03:14:03.306Z,76.80
2019-04-05T03:20:03.963Z,76.20
2019-04-05T03:26:06.459Z,75.50
2019-04-05T03:35:21.481Z,76.80
2019-04-05T03:41:20.806Z,77.60
2019-04-05T03:47:20.773Z,78.00
2019-04-05T03:53:21.395Z,77.40
2019-04-05T03:59:21.939Z,76.00
2019-04-05T04:05:33.964Z,75.40
2019-04-05T04:11:33.997Z,75.80
2019-04-05T04:17:33.636Z,76.70
2019-04-05T04:23:45.965Z,77.10
2019-04-05T04:29:45.795Z,76.20
2019-04-05T04:38:54.150Z,76.10
2019-04-05T04:44:29.914Z,77.20
2019-04-05T04:50:30.985Z,78.30
2019-04-05T04:56:31.425Z,78.70
2019-04-05T05:02:32.387Z,78.50
2019-04-05T05:08:07.852Z,78.10
2019-04-05T05:14:08.407Z,77.30
2019-04-05T05:20:08.960Z,77.30
2019-04-05T05:26:21.285Z,77.00
2019-04-05T05:32:34.018Z,77.00
2019-04-05T05:42:01.424Z,75.30
2019-04-05T05:48:00.957Z,73.50
2019-04-05T05:54:00.372Z,72.60
2019-04-05T06:00:00.598Z,70.70
2019-04-05T06:06:04.414Z,69.80
2019-04-05T06:12:02.338Z,69.40
2019-04-05T06:18:14.865Z,67.80
2019-04-05T06:24:15.009Z,66.80
2019-04-05T06:30:15.053Z,65.70
2019-04-05T06:36:14.547Z,62.90
2019-04-05T06:45:40.582Z,53.20
2019-04-05T06:51:53.075Z,52.50
2019-04-05T06:58:06.339Z,48.80
2019-04-05T07:04:18.381Z,45.10
2019-04-05T07:10:07.133Z,39.50
2019-04-05T07:16:19.147Z,34.80
2019-04-05T13:51:27.662Z,62.00
2019-04-05T13:53:51.993Z,64.50
2019-04-05T13:56:21.669Z,67.80
2019-04-05T13:58:51.413Z,69.00
2019-04-05T14:01:21.386Z,72.00
2019-04-05T14:03:51.023Z,74.80
2019-04-05T14:06:20.608Z,78.10
2019-04-05T14:08:50.257Z,81.20
2019-04-05T14:11:19.525Z,84.30
2019-04-05T14:13:49.160Z,86.60
2019-04-05T14:16:18.664Z,86.90
2019-04-05T14:18:50.578Z,88.10
2019-04-05T14:21:22.472Z,90.10
2019-04-05T14:23:53.265Z,90.70
2019-04-05T14:26:23.254Z,91.20
2019-04-05T14:28:53.126Z,91.40
2019-04-05T14:31:22.840Z,91.90
2019-04-05T14:33:54.200Z,92.30
2019-04-05T14:36:36.291Z,92.90
2019-04-05T14:39:10.236Z,93.10
2019-04-05T14:41:41.267Z,93.10
2019-04-05T14:44:14.393Z,93.00
2019-04-05T14:46:42.044Z,93.20
2019-04-05T14:49:13.098Z,93.80
2019-04-05T14:51:53.713Z,94.20
2019-04-05T14:54:16.509Z,95.70
2019-04-05T14:56:46.055Z,95.70
2019-04-05T14:59:15.943Z,96.10
2019-04-05T15:01:47.092Z,96.40
2019-04-05T15:04:17.605Z,96.80
2019-04-05T15:06:55.717Z,96.90
2019-04-05T15:12:38.816Z,97.10
2019-04-05T15:15:08.288Z,98.00
2019-04-05T15:17:47.326Z,97.40
2019-04-05T15:20:09.765Z,96.80
2019-04-05T15:22:42.166Z,97.30
2019-04-05T15:25:11.710Z,98.30
2019-04-05T15:27:41.564Z,98.70
2019-04-05T15:30:11.374Z,98.80
2019-04-05T15:32:40.987Z,99.20
2019-04-05T15:35:11.642Z,99.30
2019-04-05T15:37:41.020Z,98.20
2019-04-05T15:40:11.298Z,98.80
2019-04-05T15:42:40.586Z,98.30
2019-04-05T15:45:10.667Z,98.60
2019-04-05T15:47:40.105Z,98.80
2019-04-05T15:50:09.878Z,98.80
2019-04-05T15:52:39.374Z,98.90
2019-04-05T15:55:13.282Z,99.20
2019-04-05T15:57:43.107Z,99.50
2019-04-05T16:00:14.185Z,99.20
2019-04-05T16:02:43.735Z,99.40
2019-04-05T16:05:13.695Z,99.90
2019-04-05T16:07:43.417Z,99.90
2019-04-05T16:10:12.890Z,99.90
2019-04-05T16:12:44.519Z,99.90
2019-04-05T16:15:13.934Z,99.90
2019-04-05T16:17:43.728Z,99.90
2019-04-05T16:20:14.323Z,99.90
2019-04-05T16:22:43.689Z,99.90
2019-04-05T16:25:13.378Z,99.90
2019-04-05T16:27:42.735Z,99.90
2019-04-05T16:30:12.476Z,99.90
2019-04-05T16:32:41.781Z,99.90
2019-04-05T16:35:14.356Z,99.90
2019-04-05T16:37:43.687Z,99.90
2019-04-05T16:40:13.727Z,99.90
2019-04-05T16:42:44.054Z,99.90
2019-04-05T16:45:13.873Z,99.90
2019-04-05T16:47:43.313Z,99.90
2019-04-05T16:50:13.799Z,99.90
2019-04-05T16:52:45.196Z,99.90
2019-04-05T16:55:14.944Z,99.90
2019-04-05T16:57:44.290Z,99.90
2019-04-05T17:00:15.055Z,99.90
2019-04-05T17:02:45.130Z,99.90
2019-04-05T17:05:14.539Z,99.90
2019-04-05T17:07:43.819Z,99.90
2019-04-05T17:10:14.264Z,99.90
2019-04-05T17:12:43.662Z,99.90
2019-04-05T17:15:14.479Z,99.90
2019-04-05T17:17:44.866Z,99.90
2019-04-05T17:20:15.160Z,99.90
2019-04-05T17:22:57.557Z,99.90
2019-04-05T17:25:21.080Z,99.90
2019-04-05T17:27:52.262Z,99.90
2019-04-05T17:30:23.208Z,99.90
2019-04-05T17:32:54.217Z,99.90
2019-04-05T17:35:24.431Z,99.90
2019-04-05T17:37:53.964Z,99.90
2019-04-05T17:40:24.534Z,99.90
2019-04-05T17:43:00.211Z,99.90
2019-04-05T17:45:31.045Z,99.90
2019-04-05T17:48:04.358Z,99.90
2019-04-05T17:50:43.878Z,99.90
2019-04-05T17:53:16.986Z,99.90
2019-04-05T17:55:47.696Z,99.90
2019-04-05T17:58:20.339Z,99.90
2019-04-05T18:00:50.607Z,99.90
2019-04-05T18:03:20.752Z,99.90
2019-04-05T18:05:54.586Z,99.90
2019-04-05T18:08:25.300Z,99.90
2019-04-05T18:10:55.984Z,99.90
2019-04-05T18:13:29.036Z,99.90
2019-04-05T18:16:01.732Z,99.90
2019-04-05T18:18:34.585Z,99.90
2019-04-05T18:21:06.086Z,99.90
2019-04-05T18:23:35.451Z,99.90
2019-04-05T18:26:05.180Z,99.90
2019-04-05T18:28:34.603Z,99.90
2019-04-05T18:31:04.076Z,99.90
2019-04-05T18:33:33.482Z,99.90
2019-04-05T18:36:03.054Z,99.90
2019-04-05T18:38:32.561Z,99.90
2019-04-05T18:41:04.034Z,99.90
2019-04-05T18:43:33.482Z,99.90
2019-04-05T18:46:02.887Z,99.90
2019-04-05T18:48:32.381Z,99.90
2019-04-05T18:51:01.847Z,99.90
2019-04-05T18:53:37.502Z,99.90
2019-04-05T18:56:02.809Z,99.90
2019-04-05T18:58:33.350Z,99.90
2019-04-05T19:01:02.803Z,99.90
2019-04-05T19:03:32.123Z,99.90
2019-04-05T19:06:03.385Z,99.90
2019-04-05T19:08:39.501Z,99.90
2019-04-05T19:11:04.298Z,99.90
2019-04-05T19:13:33.794Z,99.90
2019-04-05T19:16:10.046Z,99.90
2019-04-05T19:18:46.826Z,99.90
2019-04-05T19:21:19.955Z,99.90
2019-04-05T19:23:53.227Z,99.90
2019-04-05T19:26:22.675Z,99.90
2019-04-05T19:28:55.027Z,99.90
2019-04-05T19:49:20.712Z,99.20
2019-04-05T19:51:50.573Z,99.40
2019-04-05T19:54:20.272Z,99.20
2019-04-05T19:56:52.986Z,99.10
2019-04-05T19:59:23.202Z,98.80
2019-04-05T20:01:52.526Z,98.80
2019-04-05T20:04:23.702Z,98.80
2019-04-05T20:06:58.376Z,99.00
2019-04-05T20:09:25.330Z,99.10
2019-04-05T20:11:54.669Z,99.00
2019-04-05T20:14:24.251Z,99.00
2019-04-05T20:16:53.970Z,99.10
2019-04-05T20:19:26.086Z,99.20
2019-04-05T20:21:58.599Z,99.40
2019-04-05T20:24:30.727Z,99.40
2019-04-05T20:27:00.078Z,99.50
2019-04-05T20:29:33.902Z,99.40
2019-04-05T20:32:06.685Z,99.40
2019-04-05T20:34:36.777Z,99.40
2019-04-05T20:37:08.225Z,99.50
2019-04-05T20:39:37.679Z,99.50
2019-04-05T20:42:07.466Z,99.60
2019-04-05T20:44:36.966Z,99.30
2019-04-05T20:47:06.612Z,99.60
2019-04-05T20:49:36.112Z,99.60
2019-04-05T20:52:05.425Z,99.60
2019-04-05T20:54:34.992Z,99.50
2019-04-05T20:57:04.228Z,99.50
2019-04-05T20:59:33.699Z,99.70
2019-04-05T21:02:03.051Z,99.70
2019-04-05T21:04:32.569Z,99.70
2019-04-05T21:07:01.899Z,99.80
2019-04-05T21:09:31.819Z,99.90
2019-04-05T21:12:01.286Z,99.90
2019-04-05T21:14:31.071Z,99.90
2019-04-05T21:17:00.339Z,99.80
2019-04-05T21:19:30.414Z,99.70
2019-04-05T21:21:59.757Z,99.90
2019-04-05T21:24:36.084Z,99.90
2019-04-05T21:27:00.672Z,99.90
2019-04-05T21:29:32.171Z,99.90
2019-04-05T21:32:01.648Z,99.90
2019-04-05T21:34:30.940Z,99.90
2019-04-05T21:37:00.891Z,99.90
2019-04-05T21:39:31.169Z,99.90
2019-04-05T21:42:00.577Z,99.90
2019-04-05T21:44:30.179Z,99.90
2019-04-05T21:46:59.437Z,99.90
2019-04-05T21:49:30.286Z,99.90
2019-04-05T21:51:59.567Z,99.90
2019-04-05T21:54:30.927Z,99.90
2019-04-05T21:57:00.278Z,99.90
2019-04-05T21:59:30.665Z,99.90
2019-04-05T22:02:00.286Z,99.90
2019-04-05T22:04:32.171Z,99.90
2019-04-05T22:07:01.702Z,99.90
2019-04-05T22:09:31.042Z,99.90
2019-04-05T22:12:00.374Z,99.90
2019-04-05T22:14:30.075Z,99.90
2019-04-05T22:16:59.416Z,99.90
2019-04-05T22:19:29.622Z,99.90
2019-04-05T22:21:58.988Z,99.90
2019-04-05T22:24:28.902Z,99.90
2019-04-05T22:26:58.505Z,99.90
2019-04-05T22:29:30.185Z,99.90
2019-04-05T22:31:59.615Z,99.90
2019-04-05T22:34:31.294Z,99.90
2019-04-05T22:37:00.584Z,99.90
2019-04-05T22:39:31.082Z,99.90
2019-04-05T22:42:00.939Z,99.90
2019-04-05T22:44:39.911Z,99.90
2019-04-05T22:47:04.955Z,99.90
2019-04-05T22:49:34.461Z,99.90
2019-04-05T22:52:04.981Z,99.90
2019-04-05T22:54:36.801Z,99.90
2019-04-05T22:57:06.064Z,99.90
2019-04-05T22:59:35.418Z,99.90
2019-04-05T23:02:04.702Z,99.90
2019-04-05T23:04:34.266Z,99.90
2019-04-05T23:07:03.592Z,99.90
2019-04-05T23:09:38.864Z,99.90
2019-04-05T23:12:08.157Z,99.90
2019-04-05T23:14:38.282Z,99.90
2019-04-05T23:17:07.547Z,99.90
2019-04-05T23:19:37.073Z,99.90
2019-04-05T23:22:06.572Z,99.90
2019-04-05T23:24:35.869Z,99.90
2019-04-05T23:27:05.660Z,99.90
2019-04-05T23:29:34.938Z,99.90
2019-04-05T23:32:04.458Z,99.90
2019-04-05T23:34:33.798Z,99.90
2019-04-05T23:37:03.219Z,99.90
2019-04-05T23:39:32.747Z,99.90
2019-04-05T23:42:02.434Z,99.90
2019-04-05T23:44:31.783Z,99.90
2019-04-05T23:47:01.205Z,99.90
2019-04-05T23:49:30.564Z,99.90
2019-04-05T23:51:59.831Z,99.90
2019-04-05T23:54:32.092Z,99.90
2019-04-05T23:57:01.426Z,99.90
2019-04-05T23:59:30.983Z,99.90
